createdAt,value
2018-12-10T00:01:21.537Z,101077.31
2018-12-10T00:03:52.450Z,101086.21
2018-12-10T00:06:21.971Z,101085.81
2018-12-10T00:08:51.931Z,101083.42
2018-12-10T00:11:22.519Z,101081.20
2018-12-10T00:13:56.346Z,101084.65
2018-12-10T00:16:25.806Z,101083.86
2018-12-10T00:18:55.698Z,101085.41
2018-12-10T00:21:26.142Z,101079.73
2018-12-10T00:23:56.189Z,101079.33
2018-12-10T00:26:26.674Z,101085.48
2018-12-10T00:28:56.089Z,101085.53
2018-12-10T00:31:29.310Z,101087.13
2018-12-10T00:34:00.611Z,101094.37
2018-12-10T00:36:30.670Z,101101.95
2018-12-10T00:39:00.673Z,101110.88
2018-12-10T00:41:30.292Z,101116.95
2018-12-10T00:43:59.586Z,101123.27
2018-12-10T00:46:28.879Z,101127.13
2018-12-10T00:49:02.701Z,101129.69
2018-12-10T00:51:33.752Z,101127.58
2018-12-10T00:54:03.208Z,101134.95
2018-12-10T00:56:32.529Z,101135.36
2018-12-10T00:59:02.759Z,101137.14
2018-12-10T01:01:32.383Z,101133.39
2018-12-10T01:04:01.892Z,101143.06
2018-12-10T01:06:31.240Z,101143.53
2018-12-10T01:09:00.619Z,101155.02
2018-12-10T01:11:31.226Z,101154.19
2018-12-10T01:14:00.540Z,101151.42
2018-12-10T01:16:30.029Z,101159.45
2018-12-10T01:18:59.555Z,101174.33
2018-12-10T01:21:28.962Z,101182.25
2018-12-10T01:24:00.026Z,101178.02
2018-12-10T01:26:29.362Z,101176.34
2018-12-10T01:28:58.639Z,101179.52
2018-12-10T01:31:27.862Z,101184.29
2018-12-10T01:33:57.869Z,101189.66
2018-12-10T01:36:27.221Z,101188.94
2018-12-10T01:38:56.875Z,101191.08
2018-12-10T01:41:26.407Z,101196.29
2018-12-10T01:43:55.642Z,101202.46
2018-12-10T01:46:25.272Z,101205.89
2018-12-10T01:48:54.691Z,101213.34
2018-12-10T01:51:24.626Z,101218.48
2018-12-10T01:53:54.031Z,101225.64
2018-12-10T01:56:23.811Z,101228.84
2018-12-10T01:58:53.226Z,101229.16
2018-12-10T02:01:22.832Z,101237.48
2018-12-10T02:03:52.232Z,101232.09
2018-12-10T02:06:21.495Z,101234.34
2018-12-10T02:08:50.949Z,101242.66
2018-12-10T02:11:20.154Z,101242.53
2018-12-10T02:13:49.633Z,101240.88
2018-12-10T02:16:19.064Z,101243.06
2018-12-10T02:18:49.302Z,101241.73
2018-12-10T02:21:41.348Z,101242.56
2018-12-10T02:24:11.148Z,101252.95
2018-12-10T02:26:40.613Z,101249.46
2018-12-10T02:29:14.109Z,101252.45
2018-12-10T02:31:44.126Z,101255.77
2018-12-10T02:34:13.530Z,101263.27
2018-12-10T02:36:42.867Z,101259.81
2018-12-10T02:39:12.224Z,101265.55
2018-12-10T02:41:41.717Z,101262.67
2018-12-10T02:44:11.849Z,101269.19
2018-12-10T02:46:41.180Z,101274.24
2018-12-10T02:49:10.762Z,101280.82
2018-12-10T02:51:40.130Z,101276.48
2018-12-10T02:54:09.653Z,101275.98
2018-12-10T02:56:38.909Z,101269.21
2018-12-10T02:59:09.253Z,101269.27
2018-12-10T03:01:38.689Z,101271.39
2018-12-10T03:04:14.962Z,101272.90
2018-12-10T03:06:44.343Z,101271.13
2018-12-10T03:09:13.897Z,101273.01
2018-12-10T03:11:43.408Z,101278.68
2018-12-10T03:14:13.923Z,101273.15
2018-12-10T03:16:43.336Z,101280.16
2018-12-10T03:19:13.149Z,101290.16
2018-12-10T03:21:42.511Z,101294.13
2018-12-10T03:24:12.277Z,101301.05
2018-12-10T03:26:41.690Z,101293.31
2018-12-10T03:29:11.569Z,101289.69
2018-12-10T03:31:41.437Z,101299.37
2018-12-10T03:34:12.346Z,101303.98
2018-12-10T03:36:42.847Z,101305.64
2018-12-10T03:39:14.396Z,101302.15
2018-12-10T03:41:49.759Z,101302.23
2018-12-10T03:44:21.371Z,101297.77
2018-12-10T03:46:53.125Z,101310.80
2018-12-10T03:49:25.416Z,101304.85
2018-12-10T03:51:58.754Z,101306.27
2018-12-10T03:54:31.455Z,101301.05
2018-12-10T03:57:04.602Z,101308.09
2018-12-10T03:59:40.582Z,101314.68
2018-12-10T04:02:32.403Z,101325.13
2018-12-10T04:05:07.202Z,101320.41
2018-12-10T04:07:38.054Z,101323.02
2018-12-10T04:10:08.470Z,101328.56
2018-12-10T04:12:37.837Z,101322.87
2018-12-10T04:15:07.237Z,101328.05
2018-12-10T04:17:36.528Z,101335.84
2018-12-10T04:20:06.245Z,101332.27
2018-12-10T04:22:35.434Z,101337.82
2018-12-10T04:25:05.128Z,101338.25
2018-12-10T04:27:35.658Z,101341.33
2018-12-10T04:30:05.472Z,101340.92
2018-12-10T04:32:35.780Z,101333.02
2018-12-10T04:35:05.445Z,101340.77
2018-12-10T04:37:35.288Z,101344.22
2018-12-10T04:40:04.880Z,101344.77
2018-12-10T04:42:35.282Z,101339.61
2018-12-10T04:45:04.682Z,101353.11
2018-12-10T04:47:35.499Z,101358.09
2018-12-10T04:50:05.332Z,101357.68
2018-12-10T04:52:35.645Z,101362.47
2018-12-10T04:55:05.247Z,101366.50
2018-12-10T04:57:35.309Z,101368.53
2018-12-10T05:00:05.927Z,101370.72
2018-12-10T05:02:36.178Z,101374.12
2018-12-10T05:05:07.574Z,101383.31
2018-12-10T05:07:36.813Z,101382.83
2018-12-10T05:10:06.375Z,101386.31
2018-12-10T05:12:36.703Z,101380.69
2018-12-10T05:15:06.655Z,101388.59
2018-12-10T05:17:35.954Z,101389.39
2018-12-10T05:20:05.562Z,101398.55
2018-12-10T05:22:35.573Z,101396.78
2018-12-10T05:25:05.495Z,101399.96
2018-12-10T05:27:35.607Z,101394.78
2018-12-10T05:30:05.120Z,101403.02
2018-12-10T05:32:35.237Z,101402.19
2018-12-10T05:35:04.665Z,101403.38
2018-12-10T05:37:34.276Z,101404.69
2018-12-10T05:40:04.100Z,101412.15
2018-12-10T05:42:33.670Z,101419.92
2018-12-10T05:45:03.296Z,101414.30
2018-12-10T05:47:35.535Z,101409.45
2018-12-10T05:50:05.587Z,101422.06
2018-12-10T05:52:35.032Z,101410.41
2018-12-10T05:55:04.888Z,101419.13
2018-12-10T05:57:34.484Z,101430.33
2018-12-10T06:00:04.036Z,101432.98
2018-12-10T06:02:33.542Z,101433.96
2018-12-10T06:05:02.811Z,101433.96
2018-12-10T06:07:32.456Z,101437.02
2018-12-10T06:10:01.705Z,101439.97
2018-12-10T06:12:32.687Z,101444.26
2018-12-10T06:15:02.040Z,101442.17
2018-12-10T06:17:31.395Z,101444.91
2018-12-10T06:20:02.294Z,101438.45
2018-12-10T06:22:32.990Z,101443.22
2018-12-10T06:25:02.423Z,101443.35
2018-12-10T06:27:31.924Z,101458.59
2018-12-10T06:30:04.441Z,101461.73
2018-12-10T06:32:36.232Z,101466.98
2018-12-10T06:35:05.779Z,101464.80
2018-12-10T06:37:37.674Z,101466.98
2018-12-10T06:40:08.173Z,101464.84
2018-12-10T06:42:38.677Z,101467.91
2018-12-10T06:45:08.311Z,101464.41
2018-12-10T06:47:37.606Z,101472.25
2018-12-10T06:50:07.909Z,101473.58
2018-12-10T06:52:38.126Z,101469.32
2018-12-10T06:55:08.406Z,101477.58
2018-12-10T06:57:37.678Z,101473.28
2018-12-10T07:00:08.635Z,101474.14
2018-12-10T07:02:37.816Z,101480.58
2018-12-10T07:05:07.415Z,101480.59
2018-12-10T07:07:37.375Z,101485.89
2018-12-10T07:10:08.071Z,101485.03
2018-12-10T07:12:37.347Z,101484.56
2018-12-10T07:15:07.836Z,101483.74
2018-12-10T07:17:39.473Z,101487.67
2018-12-10T07:20:14.096Z,101495.05
2018-12-10T07:22:58.837Z,101493.31
2018-12-10T07:25:30.663Z,101492.81
2018-12-10T07:28:00.944Z,101490.22
2018-12-10T07:30:31.074Z,101496.70
2018-12-10T07:33:01.274Z,101500.67
2018-12-10T07:35:31.830Z,101510.19
2018-12-10T07:38:02.318Z,101508.47
2018-12-10T07:40:32.047Z,101513.25
2018-12-10T07:43:02.945Z,101516.66
2018-12-10T07:45:35.515Z,101513.25
2018-12-10T07:48:19.506Z,101525.84
2018-12-10T07:50:55.039Z,101521.14
2018-12-10T07:53:27.426Z,101525.47
2018-12-10T07:55:57.296Z,101531.54
2018-12-10T07:58:27.477Z,101534.63
2018-12-10T08:00:56.912Z,101535.05
2018-12-10T08:03:26.295Z,101539.06
2018-12-10T08:05:55.668Z,101534.83
2018-12-10T08:08:25.040Z,101540.39
2018-12-10T08:10:54.293Z,101539.14
2018-12-10T08:13:23.644Z,101541.33
2018-12-10T08:15:53.114Z,101546.63
2018-12-10T08:18:22.371Z,101551.66
2018-12-10T08:20:52.028Z,101557.77
2018-12-10T08:23:21.363Z,101560.44
2018-12-10T08:25:50.834Z,101563.39
2018-12-10T08:28:20.293Z,101570.82
2018-12-10T08:30:49.630Z,101571.21
2018-12-10T08:33:18.971Z,101576.88
2018-12-10T08:35:49.376Z,101579.52
2018-12-10T08:38:18.953Z,101576.37
2018-12-10T08:40:48.576Z,101590.77
2018-12-10T08:43:18.155Z,101580.66
2018-12-10T08:45:47.592Z,101574.95
2018-12-10T08:48:17.050Z,101576.53
2018-12-10T08:50:48.075Z,101580.83
2018-12-10T08:53:17.454Z,101583.94
2018-12-10T08:55:47.048Z,101592.60
2018-12-10T08:58:17.013Z,101588.17
2018-12-10T09:00:47.194Z,101591.23
2018-12-10T09:03:16.810Z,101595.96
2018-12-10T09:05:46.087Z,101601.16
2018-12-10T09:08:15.471Z,101601.28
2018-12-10T09:10:45.653Z,101596.00
2018-12-10T09:13:15.212Z,101609.01
2018-12-10T09:15:44.430Z,101609.09
2018-12-10T09:18:13.636Z,101609.09
2018-12-10T09:20:43.497Z,101614.73
2018-12-10T09:23:12.887Z,101618.16
2018-12-10T09:25:42.325Z,101614.23
2018-12-10T09:28:19.287Z,101617.72
2018-12-10T09:30:42.920Z,101618.53
2018-12-10T09:33:16.086Z,101626.76
2018-12-10T09:35:45.347Z,101621.09
2018-12-10T09:38:14.900Z,101628.86
2018-12-10T09:40:44.187Z,101633.17
2018-12-10T09:43:13.596Z,101630.98
2018-12-10T09:45:43.303Z,101633.48
2018-12-10T09:48:12.700Z,101632.56
2018-12-10T09:50:42.753Z,101634.80
2018-12-10T09:53:12.743Z,101625.58
2018-12-10T09:55:42.230Z,101622.97
2018-12-10T09:58:11.629Z,101622.97
2018-12-10T10:00:41.213Z,101633.33
2018-12-10T10:03:10.740Z,101634.56
2018-12-10T10:05:40.144Z,101627.56
2018-12-10T10:08:09.491Z,101629.84
2018-12-10T10:10:38.733Z,101623.30
2018-12-10T10:13:07.943Z,101626.78
2018-12-10T10:15:38.286Z,101634.09
2018-12-10T10:18:07.923Z,101640.39
2018-12-10T10:20:37.196Z,101638.99
2018-12-10T10:23:06.660Z,101640.30
2018-12-10T10:25:35.994Z,101624.23
2018-12-10T10:28:06.297Z,101628.95
2018-12-10T10:30:35.956Z,101634.92
2018-12-10T10:33:06.057Z,101633.25
2018-12-10T10:35:35.869Z,101636.59
2018-12-10T10:38:06.687Z,101639.70
2018-12-10T10:40:36.097Z,101640.58
2018-12-10T10:43:05.524Z,101642.35
2018-12-10T10:45:35.258Z,101643.54
2018-12-10T10:48:04.628Z,101632.16
2018-12-10T10:50:34.032Z,101642.62
2018-12-10T10:53:03.409Z,101632.53
2018-12-10T10:55:33.223Z,101623.73
2018-12-10T10:58:02.920Z,101627.96
2018-12-10T11:00:38.075Z,101623.20
2018-12-10T11:03:12.683Z,101616.59
2018-12-10T11:05:42.235Z,101611.81
2018-12-10T11:08:12.617Z,101610.96
2018-12-10T11:10:42.157Z,101625.85
2018-12-10T11:13:11.471Z,101626.31
2018-12-10T11:15:40.958Z,101623.41
2018-12-10T11:18:10.852Z,101621.34
2018-12-10T11:20:40.150Z,101626.65
2018-12-10T11:23:09.435Z,101622.03
2018-12-10T11:25:38.849Z,101630.83
2018-12-10T11:28:12.231Z,101631.39
2018-12-10T11:30:41.960Z,101635.02
2018-12-10T11:33:11.353Z,101626.84
2018-12-10T11:35:40.870Z,101619.91
2018-12-10T11:38:10.153Z,101616.98
2018-12-10T11:40:40.004Z,101619.23
2018-12-10T11:43:09.494Z,101616.05
2018-12-10T11:45:38.883Z,101602.55
2018-12-10T11:48:10.118Z,101603.44
2018-12-10T11:50:40.467Z,101597.82
2018-12-10T11:53:10.171Z,101607.25
2018-12-10T11:55:39.475Z,101603.77
2018-12-10T11:58:09.061Z,101591.83
2018-12-10T12:00:38.296Z,101591.31
2018-12-10T12:03:07.766Z,101590.88
2018-12-10T12:05:37.047Z,101586.56
2018-12-10T12:08:06.807Z,101583.14
2018-12-10T12:10:36.334Z,101581.88
2018-12-10T12:13:05.670Z,101585.80
2018-12-10T12:15:35.316Z,101598.42
2018-12-10T12:18:06.671Z,101587.86
2018-12-10T12:20:37.262Z,101592.98
2018-12-10T12:23:11.273Z,101581.28
2018-12-10T12:25:40.683Z,101586.95
2018-12-10T12:28:10.227Z,101578.22
2018-12-10T12:30:40.307Z,101582.15
2018-12-10T12:33:09.709Z,101584.86
2018-12-10T12:35:39.145Z,101596.75
2018-12-10T12:38:08.716Z,101596.32
2018-12-10T12:40:38.055Z,101599.22
2018-12-10T12:43:15.796Z,101597.52
2018-12-10T12:45:40.227Z,101598.78
2018-12-10T12:48:10.207Z,101590.08
2018-12-10T12:50:39.517Z,101589.19
2018-12-10T12:53:09.480Z,101589.59
2018-12-10T12:55:38.865Z,101585.91
2018-12-10T12:58:08.981Z,101581.81
2018-12-10T13:00:41.995Z,101590.55
2018-12-10T13:03:10.217Z,101586.95
2018-12-10T13:05:41.008Z,101588.27
2018-12-10T13:08:10.558Z,101580.35
2018-12-10T13:10:40.081Z,101580.84
2018-12-10T13:13:09.438Z,101578.92
2018-12-10T13:15:38.902Z,101583.67
2018-12-10T13:18:08.205Z,101587.70
2018-12-10T13:20:38.149Z,101579.41
2018-12-10T13:23:07.741Z,101581.59
2018-12-10T13:25:37.407Z,101587.50
2018-12-10T13:28:06.795Z,101585.30
2018-12-10T13:30:39.100Z,101585.11
2018-12-10T13:33:09.467Z,101593.72
2018-12-10T13:35:39.237Z,101594.02
2018-12-10T13:38:12.417Z,101591.73
2018-12-10T13:40:40.445Z,101582.08
2018-12-10T13:43:10.075Z,101579.68
2018-12-10T13:45:39.558Z,101590.14
2018-12-10T13:48:09.450Z,101595.33
2018-12-10T13:50:38.871Z,101595.91
2018-12-10T13:53:08.173Z,101588.89
2018-12-10T13:55:37.887Z,101588.50
2018-12-10T13:58:08.123Z,101593.25
2018-12-10T14:00:37.639Z,101589.81
2018-12-10T14:03:08.094Z,101594.02
2018-12-10T14:05:47.459Z,101598.50
2018-12-10T14:08:14.855Z,101591.91
2018-12-10T14:10:44.823Z,101585.39
2018-12-10T14:13:14.402Z,101582.33
2018-12-10T14:15:44.072Z,101590.36
2018-12-10T14:18:13.593Z,101585.14
2018-12-10T14:20:43.609Z,101589.97
2018-12-10T14:23:13.033Z,101594.34
2018-12-10T14:25:42.581Z,101592.16
2018-12-10T14:28:13.782Z,101592.57
2018-12-10T14:30:43.248Z,101595.91
2018-12-10T14:33:14.834Z,101601.17
2018-12-10T14:35:45.565Z,101596.45
2018-12-10T14:38:14.954Z,101614.25
2018-12-10T14:40:45.168Z,101608.27
2018-12-10T14:43:15.108Z,101619.99
2018-12-10T14:45:45.327Z,101617.91
2018-12-10T14:48:15.044Z,101607.34
2018-12-10T14:50:45.284Z,101608.31
2018-12-10T14:53:14.760Z,101606.67
2018-12-10T14:55:44.390Z,101615.90
2018-12-10T14:58:13.705Z,101615.14
2018-12-10T15:00:43.922Z,101612.98
2018-12-10T15:03:13.763Z,101612.19
2018-12-10T15:05:43.079Z,101616.97
2018-12-10T15:08:12.673Z,101622.34
2018-12-10T15:10:42.120Z,101620.65
2018-12-10T15:13:11.390Z,101621.98
2018-12-10T15:15:41.388Z,101626.30
2018-12-10T15:18:10.939Z,101621.52
2018-12-10T15:20:41.067Z,101618.14
2018-12-10T15:23:10.589Z,101629.42
2018-12-10T15:25:40.185Z,101639.11
2018-12-10T15:28:09.643Z,101638.75
2018-12-10T15:30:40.129Z,101641.70
2018-12-10T15:33:12.176Z,101643.86
2018-12-10T15:35:41.790Z,101635.25
2018-12-10T15:38:12.363Z,101647.88
2018-12-10T15:40:41.696Z,101647.63
2018-12-10T15:43:11.030Z,101652.36
2018-12-10T15:45:40.537Z,101653.28
2018-12-10T15:48:10.089Z,101660.76
2018-12-10T15:50:39.899Z,101666.73
2018-12-10T15:53:09.730Z,101660.30
2018-12-10T15:55:39.205Z,101661.70
2018-12-10T15:58:10.420Z,101654.78
2018-12-10T16:00:41.354Z,101658.71
2018-12-10T16:03:10.864Z,101660.92
2018-12-10T16:05:40.519Z,101665.22
2018-12-10T16:08:10.182Z,101675.24
2018-12-10T16:10:39.727Z,101674.40
2018-12-10T16:13:10.016Z,101673.89
2018-12-10T16:15:39.391Z,101670.84
2018-12-10T16:18:08.887Z,101669.61
2018-12-10T16:20:39.900Z,101676.31
2018-12-10T16:23:15.814Z,101677.59
2018-12-10T16:25:45.154Z,101688.51
2018-12-10T16:28:14.417Z,101687.22
2018-12-10T16:30:44.230Z,101693.73
2018-12-10T16:33:13.701Z,101689.80
2018-12-10T16:35:43.856Z,101693.31
2018-12-10T16:38:13.168Z,101696.72
2018-12-10T16:40:42.664Z,101693.63
2018-12-10T16:43:12.064Z,101696.72
2018-12-10T16:45:42.057Z,101694.47
2018-12-10T16:48:11.265Z,101697.44
2018-12-10T16:50:41.431Z,101700.61
2018-12-10T16:53:11.078Z,101700.12
2018-12-10T16:55:41.465Z,101700.64
2018-12-10T16:58:10.859Z,101704.63
2018-12-10T17:00:40.270Z,101708.61
2018-12-10T17:03:09.461Z,101719.02
2018-12-10T17:05:39.358Z,101718.26
2018-12-10T17:08:08.645Z,101722.20
2018-12-10T17:10:38.598Z,101718.36
2018-12-10T17:13:07.886Z,101717.56
2018-12-10T17:15:37.223Z,101721.02
2018-12-10T17:18:06.725Z,101723.25
2018-12-10T17:20:35.958Z,101721.02
2018-12-10T17:23:05.176Z,101724.08
2018-12-10T17:25:35.246Z,101724.16
2018-12-10T17:28:05.148Z,101727.97
2018-12-10T17:30:34.985Z,101725.03
2018-12-10T17:33:04.894Z,101725.93
2018-12-10T17:35:35.623Z,101725.02
2018-12-10T17:38:06.250Z,101737.24
2018-12-10T17:40:37.945Z,101737.63
2018-12-10T17:43:07.894Z,101745.46
2018-12-10T17:45:38.697Z,101750.62
2018-12-10T17:48:08.777Z,101755.09
2018-12-10T17:50:39.134Z,101757.80
2018-12-10T17:53:09.883Z,101750.44
2018-12-10T17:55:40.173Z,101754.36
2018-12-10T17:58:09.947Z,101750.02
2018-12-10T18:00:39.865Z,101745.22
2018-12-10T18:03:09.165Z,101748.76
2018-12-10T18:05:38.484Z,101744.84
2018-12-10T18:08:07.914Z,101747.05
2018-12-10T18:10:37.393Z,101740.14
2018-12-10T18:13:06.738Z,101744.09
2018-12-10T18:15:36.052Z,101744.51
2018-12-10T18:18:05.421Z,101736.67
2018-12-10T18:20:34.751Z,101731.50
2018-12-10T18:23:05.171Z,101738.45
2018-12-10T18:25:34.523Z,101743.22
2018-12-10T18:28:04.007Z,101739.79
2018-12-10T18:30:34.998Z,101746.70
2018-12-10T18:33:04.326Z,101747.55
2018-12-10T18:35:34.250Z,101752.39
2018-12-10T18:38:03.537Z,101753.67
2018-12-10T18:40:33.880Z,101747.14
2018-12-10T18:43:03.236Z,101750.19
2018-12-10T18:45:32.704Z,101748.94
2018-12-10T18:48:02.019Z,101753.69
2018-12-10T18:50:31.227Z,101747.11
2018-12-10T18:53:01.971Z,101750.62
2018-12-10T18:55:31.496Z,101745.45
2018-12-10T18:58:01.245Z,101748.01
2018-12-10T19:00:30.723Z,101735.42
2018-12-10T19:03:00.329Z,101739.73
2018-12-10T19:05:30.185Z,101743.28
2018-12-10T19:07:59.537Z,101742.02
2018-12-10T19:10:35.633Z,101746.75
2018-12-10T19:13:05.014Z,101747.63
2018-12-10T19:15:35.151Z,101742.47
2018-12-10T19:18:04.697Z,101733.35
2018-12-10T19:20:34.021Z,101746.88
2018-12-10T19:23:05.576Z,101745.05
2018-12-10T19:25:35.075Z,101739.41
2018-12-10T19:28:04.431Z,101739.41
2018-12-10T19:30:33.716Z,101745.51
2018-12-10T19:33:03.020Z,101753.40
2018-12-10T19:35:33.403Z,101751.19
2018-12-10T19:38:02.760Z,101749.48
2018-12-10T19:40:32.100Z,101753.80
2018-12-10T19:43:01.381Z,101756.48
2018-12-10T19:45:30.805Z,101756.47
2018-12-10T19:48:00.358Z,101752.17
2018-12-10T19:50:30.375Z,101758.63
2018-12-10T19:52:59.820Z,101759.06
2018-12-10T19:55:29.358Z,101755.49
2018-12-10T19:57:58.670Z,101750.64
2018-12-10T20:00:28.189Z,101752.39
2018-12-10T20:02:57.436Z,101758.47
2018-12-10T20:05:32.258Z,101761.06
2018-12-10T20:08:01.676Z,101757.59
2018-12-10T20:10:31.469Z,101761.47
2018-12-10T20:13:00.834Z,101768.03
2018-12-10T20:15:30.140Z,101768.91
2018-12-10T20:17:59.526Z,101774.13
2018-12-10T20:20:28.935Z,101782.45
2018-12-10T20:22:58.686Z,101792.39
2018-12-10T20:25:28.051Z,101785.40
2018-12-10T20:27:57.892Z,101771.09
2018-12-10T20:30:27.288Z,101774.53
2018-12-10T20:32:56.615Z,101771.49
2018-12-10T20:35:27.246Z,101770.21
2018-12-10T20:37:56.657Z,101771.95
2018-12-10T20:40:26.047Z,101765.42
2018-12-10T20:42:55.343Z,101766.30
2018-12-10T20:45:24.591Z,101769.84
2018-12-10T20:47:54.039Z,101779.00
2018-12-10T20:50:24.525Z,101782.09
2018-12-10T20:52:54.029Z,101790.41
2018-12-10T20:55:23.769Z,101778.18
2018-12-10T20:57:53.323Z,101780.80
2018-12-10T21:00:23.320Z,101776.00
2018-12-10T21:02:52.668Z,101762.41
2018-12-10T21:05:24.305Z,101771.61
2018-12-10T21:07:53.513Z,101772.84
2018-12-10T21:10:22.946Z,101774.64
2018-12-10T21:12:52.233Z,101767.67
2018-12-10T21:15:21.516Z,101772.87
2018-12-10T21:17:51.695Z,101768.54
2018-12-10T21:20:20.998Z,101776.00
2018-12-10T21:22:50.434Z,101775.94
2018-12-10T21:25:19.626Z,101776.37
2018-12-10T21:27:48.883Z,101782.88
2018-12-10T21:30:18.437Z,101783.83
2018-12-10T21:32:47.697Z,101779.45
2018-12-10T21:35:17.949Z,101791.60
2018-12-10T21:37:47.129Z,101784.22
2018-12-10T21:40:16.333Z,101778.57
2018-12-10T21:42:45.610Z,101780.35
2018-12-10T21:45:14.983Z,101781.70
2018-12-10T21:47:44.262Z,101782.09
2018-12-10T21:50:15.668Z,101779.94
2018-12-10T21:52:45.130Z,101785.18
2018-12-10T21:55:17.037Z,101781.67
2018-12-10T21:57:46.192Z,101790.78
2018-12-10T22:00:15.989Z,101787.33
2018-12-10T22:02:46.329Z,101798.23
2018-12-10T22:05:15.734Z,101787.34
2018-12-10T22:07:45.252Z,101789.05
2018-12-10T22:10:15.590Z,101783.42
2018-12-10T22:12:44.944Z,101780.81
2018-12-10T22:15:14.466Z,101782.98
2018-12-10T22:17:43.723Z,101782.99
2018-12-10T22:20:13.185Z,101782.17
2018-12-10T22:22:42.680Z,101783.07
2018-12-10T22:25:12.161Z,101784.78
2018-12-10T22:27:41.885Z,101777.00
2018-12-10T22:30:11.980Z,101777.41
2018-12-10T22:32:41.926Z,101779.17
2018-12-10T22:35:11.634Z,101780.95
2018-12-10T22:37:41.337Z,101777.91
2018-12-10T22:40:11.350Z,101780.09
2018-12-10T22:42:41.012Z,101784.41
2018-12-10T22:45:12.220Z,101778.36
2018-12-10T22:47:41.744Z,101791.43
2018-12-10T22:50:11.321Z,101788.36
2018-12-10T22:52:40.942Z,101790.16
2018-12-10T22:55:11.401Z,101792.34
2018-12-10T22:57:40.922Z,101797.13
2018-12-10T23:00:11.280Z,101801.48
2018-12-10T23:02:41.100Z,101794.95
2018-12-10T23:05:12.815Z,101791.89
2018-12-10T23:07:42.554Z,101791.42
2018-12-10T23:10:12.199Z,101797.92
2018-12-10T23:12:41.722Z,101790.45
2018-12-10T23:15:11.432Z,101788.73
2018-12-10T23:17:41.064Z,101793.06
2018-12-10T23:20:10.820Z,101792.64
2018-12-10T23:22:40.520Z,101793.50
2018-12-10T23:25:10.330Z,101794.76
2018-12-10T23:27:39.635Z,101789.97
2018-12-10T23:30:15.739Z,101799.13
2018-12-10T23:32:45.498Z,101796.50
2018-12-10T23:35:15.217Z,101796.94
2018-12-10T23:37:44.901Z,101792.53
2018-12-10T23:40:14.466Z,101807.80
2018-12-10T23:42:50.015Z,101801.70
2018-12-10T23:45:22.585Z,101802.55
2018-12-10T23:47:53.145Z,101795.56
2018-12-10T23:50:25.451Z,101795.11
2018-12-10T23:52:56.146Z,101802.92
2018-12-10T23:55:32.341Z,101798.11
2018-12-10T23:58:04.091Z,101805.53
